ESOE/ORB METAR and TAF weather

Enter ICAO airport designator
Station Type Date Time Source
ESOE METAR 2022/08/16 19:20 UTC NOAA

ESOE 161920Z AUTO 00000KT 9999 BR FEW035/// 19/18 Q1008


Station Type Date Time Source
ESOE Decoded METAR 2022/08/16 19:20 UTC NOAA

Orebro Private , Sweden (ESOE) 59-14N 015-03E
Aug 16, 2022 - 03:20 PM EDT / 2022.08.16 1920 UTC
Wind: Calm:0
Visibility: greater than 7 mile(s):0
Sky conditions: mostly clear
Weather: mist
Temperature: 66 F (19 C)
Dew Point: 64 F (18 C)
Relative Humidity: 93%
Pressure (altimeter): 29.77 in. Hg (1008 hPa)
ob: ESOE 161920Z AUTO 00000KT 9999 BR FEW035/// 19/18 Q1008
cycle: 19

Station Type Date Time Source
ESOE TAF 2022/03/13 08:53 UTC NOAA

TAF ESOE 130730Z 1308/1321 VRB03KT CAVOK

Example: see airport list